Terminal Aerodrome Forecast
Issued by NWS

Home | Current Version | Previous Version | Graphics & Text | Print | Product List | Glossary On
Versions: 1 2 3 4 5 6 7 8 9 10 11 12
000
FTUS43 KMPX 061744
TAFAXN
TAF
KAXN 061744Z 0618/0718 26010G17KT P6SM FEW250
     FM062300 33016G26KT P6SM SCT250
     FM070300 35012KT P6SM SCT200=

USA.gov is the U.S. government's official web portal to all federal, state and local government web resources and services.